Swartz, LA (71281)

5:01 PM CDT on August 27, 2015 (GMT -0500)
Swartz - Hickory Oaks | | Change Station
CLOSE
Current Station
Personal Weather Station
Location: Monroe, LA
Elevation: 125 ft
Nearby Weather Stations

Elev 125 ft 32.56 °N, 91.97 °W | Updated 17 seconds ago

Clear
Clear
90.5 °F
Feels Like 90 °F
N
3.8
Wind Variable Wind from SW
Gusts 3.8 mph

Today
High -- | Low -- °F
--% Chance of Precip.
Yesterday
High -- | Low -- °F
Precip. -- in
6:39 AM 7:39 PM
Waxing Gibbous, 95% visible
Pressure 30.00 in
Visibility 10.0 miles
Clouds Clear
Heat Index 90 °F
Dew Point 59 °F
Humidity 35%
Rainfall 0.00 in
Snow Depth Not available.
UV 4 out of 12
Pollen 7.90 out of 12
Air Quality Not available.
Flu Activity Not available.
METAR KMLU 272153Z 35011KT 10SM CLR 32/13 A3000 RMK AO2 SLP158 T03170133
Pressure 30.00 in
Visibility 10.0 miles
Clouds Clear
Heat Index 90 °F
Dew Point 59 °F
Humidity 35%
Rainfall 0.00 in
Snow Depth Not available.
UV 4 out of 12
Pollen 7.90 out of 12
Air Quality Not available.
Flu Activity Not available.
METAR KMLU 272153Z 35011KT 10SM CLR 32/13 A3000 RMK AO2 SLP158 T03170133

10-Day Weather Forecast

×

Almanac

Astronomy

Aug. 27, 2015 Rise Set
Actual Time
Civil Twilight
Nautical Twilight
Astronomical Twilight
Moon
Length of Visible Light
Length of Day
Tomorrow will be .
, % of the Moon is Illuminated

Today's Extremes

State Highs State Lows

Community

WunderPhotos

Upload Photos

1,850,246 photos uploaded!

WunderBlogs® & News

Nearby

Air Quality

  Air Quality AQ Index Pollutant
Not available.

Snow Depth

Station Depth Elevation

Earthquake Activity

City Distance Mag. Time & Date
Minimum magnitude displayed is 2.5.

Coastal Water Temperatures

Place Temperature

Stations

Nearby Weather Stations

Station Location Temp. Windchill Dew Point Humidity Wind Precip. Elev Updated Type